Time;durP1;ratioP1;P1;durP2;ratioP2;P2;SDS_P1;SDS_P2;PMS_P1;PMS_P2;Temp;Humidity;BMP_temperature;BMP_pressure;BME280_temperature;BME280_humidity;BME280_pressure;Samples;Min_cycle;Max_cycle;Signal;HPM_P1;HPM_P2
2021/06/28 00:01:16;;;;;;;12.58;10.72;;;;;;;15.23;85.37;98227.73;1791869;79;20974;-83
2021/06/28 00:03:46;;;;;;;12.13;10.45;;;;;;;15.18;85.45;98225.09;1773330;79;20950;-83
2021/06/28 00:06:13;;;;;;;14.47;12.27;;;;;;;15.18;83.42;98236.81;1795971;79;21008;-85
2021/06/28 00:08:40;;;;;;;13.78;12.25;;;;;;;15.04;85.26;98229.21;1795359;80;20935;-88
2021/06/28 00:11:07;;;;;;;15.43;12.53;;;;;;;15.03;84.99;98225.39;1795447;80;20955;-88
2021/06/28 00:13:35;;;;;;;14.43;11.70;;;;;;;15.00;85.04;98226.82;1795387;80;21434;-88
2021/06/28 00:16:01;;;;;;;14.40;11.27;;;;;;;14.99;85.78;98223.84;1795261;79;21009;-85
2021/06/28 00:18:28;;;;;;;16.62;11.25;;;;;;;15.03;84.88;98228.93;1795448;79;21019;-83
2021/06/28 00:20:54;;;;;;;12.05;9.75;;;;;;;15.04;85.61;98228.38;1795052;79;20954;-84
2021/06/28 00:23:27;;;;;;;12.58;11.22;;;;;;;15.04;84.19;98227.84;1795369;79;21004;-88
2021/06/28 00:25:50;;;;;;;11.78;10.15;;;;;;;14.93;84.91;98224.48;1793593;79;20935;-83
2021/06/28 00:28:16;;;;;;;13.60;10.38;;;;;;;14.87;84.59;98229.81;1795410;79;21500;-83
2021/06/28 00:30:47;;;;;;;14.55;10.58;;;;;;;14.80;84.67;98226.67;1793262;79;21482;-83
2021/06/28 00:33:19;;;;;;;13.22;10.68;;;;;;;14.72;84.92;98220.55;1795617;79;21022;-82
2021/06/28 00:35:47;;;;;;;14.23;11.12;;;;;;;14.70;85.13;98223.30;1771352;80;20903;-88
2021/06/28 00:38:15;;;;;;;11.48;9.80;;;;;;;14.62;85.09;98227.01;1795625;80;21183;-83
2021/06/28 00:40:46;;;;;;;11.95;9.65;;;;;;;14.57;84.48;98224.36;1794670;79;21066;-82
2021/06/28 00:43:12;;;;;;;12.60;10.65;;;;;;;14.50;84.04;98230.75;1795551;79;20994;-88
2021/06/28 00:45:40;;;;;;;12.07;10.00;;;;;;;14.41;85.20;98225.70;1795487;79;21014;-83
2021/06/28 00:48:09;;;;;;;13.38;10.60;;;;;;;14.39;84.62;98227.93;1795227;79;21072;-86
2021/06/28 00:50:40;;;;;;;14.47;10.58;;;;;;;14.36;84.80;98227.98;1795338;79;21816;-83
2021/06/28 00:53:08;;;;;;;11.57;10.35;;;;;;;14.34;84.89;98217.91;1795069;79;20977;-88
2021/06/28 00:55:39;;;;;;;11.57;9.90;;;;;;;14.33;84.90;98224.47;1795281;79;21399;-88
2021/06/28 00:58:05;;;;;;;14.60;10.88;;;;;;;14.34;84.25;98217.91;1793184;79;20958;-83
2021/06/28 01:00:33;;;;;;;13.43;10.70;;;;;;;14.28;85.69;98221.05;1771184;80;20958;-88
2021/06/28 01:03:01;;;;;;;13.32;10.65;;;;;;;14.23;86.47;98221.92;1771023;80;20942;-83
2021/06/28 01:05:32;;;;;;;12.53;9.75;;;;;;;14.26;86.89;98221.31;1795452;80;20926;-88
2021/06/28 01:07:59;;;;;;;13.65;11.12;;;;;;;14.29;86.66;98218.57;1795348;79;20886;-88
2021/06/28 01:10:25;;;;;;;16.65;9.30;;;;;;;14.33;85.34;98216.85;1795245;80;20959;-88
2021/06/28 01:12:54;;;;;;;15.43;10.70;;;;;;;14.29;85.19;98217.21;1795191;80;20914;-88
2021/06/28 01:15:22;;;;;;;41.40;12.03;;;;;;;14.24;85.42;98219.45;1795236;79;21116;-83
2021/06/28 01:17:51;;;;;;;13.20;10.00;;;;;;;14.14;85.49;98218.27;1794865;79;20883;-88
2021/06/28 01:20:26;;;;;;;13.50;10.58;;;;;;;14.07;85.78;98220.00;1795442;79;21319;-83
2021/06/28 01:22:57;;;;;;;14.18;11.18;;;;;;;14.02;86.12;98222.83;1795135;79;21061;-87
2021/06/28 01:25:25;;;;;;;11.00;9.80;;;;;;;14.03;86.18;98220.91;1795590;79;21402;-82
2021/06/28 01:27:51;;;;;;;9.45;8.33;;;;;;;14.03;85.15;98215.46;1795470;80;21141;-87
2021/06/28 01:30:26;;;;;;;12.20;10.53;;;;;;;13.97;85.01;98217.45;1795414;79;20879;-83
2021/06/28 01:32:52;;;;;;;14.25;10.88;;;;;;;13.96;84.49;98221.83;1795516;80;21262;-83
2021/06/28 01:35:18;;;;;;;14.78;11.70;;;;;;;13.95;84.85;98221.58;1795483;80;20895;-89
2021/06/28 01:37:52;;;;;;;13.55;10.80;;;;;;;13.90;84.13;98229.27;1795333;80;20974;-88
2021/06/28 01:40:14;;;;;;;13.05;10.88;;;;;;;13.80;84.98;98233.52;1793354;79;21246;-88
2021/06/28 01:42:42;;;;;;;14.85;10.82;;;;;;;13.77;85.73;98223.22;1795222;79;21351;-89
2021/06/28 01:45:12;;;;;;;11.80;10.28;;;;;;;13.76;85.34;98227.86;1795964;79;20896;-83
2021/06/28 01:47:47;;;;;;;12.33;10.80;;;;;;;13.77;85.90;98234.92;1793663;79;20958;-83
2021/06/28 01:50:12;;;;;;;12.25;10.55;;;;;;;13.73;86.02;98224.90;1793367;79;20899;-83
2021/06/28 01:52:38;;;;;;;11.93;9.90;;;;;;;13.72;85.55;98225.45;1795395;79;21073;-83
2021/06/28 01:55:15;;;;;;;15.13;9.63;;;;;;;13.73;85.63;98226.27;1795322;80;20971;-88
2021/06/28 01:57:48;;;;;;;11.43;9.75;;;;;;;13.73;85.79;98224.90;1793121;80;20954;-88
2021/06/28 02:00:18;;;;;;;14.80;10.28;;;;;;;13.69;85.37;98222.52;1795405;80;26461;-87
2021/06/28 02:03:04;;;;;;;14.18;9.40;;;;;;;13.69;85.22;98223.33;1795411;80;20983;-83
2021/06/28 02:05:38;;;;;;;11.95;10.03;;;;;;;13.65;85.17;98224.20;1794905;79;21548;-82
2021/06/28 02:08:06;;;;;;;13.80;11.30;;;;;;;13.60;85.34;98224.29;1794966;79;20951;-88
2021/06/28 02:10:33;;;;;;;16.48;10.13;;;;;;;13.57;87.15;98218.86;1795149;79;21535;-84
2021/06/28 02:12:59;;;;;;;15.98;9.83;;;;;;;13.57;86.42;98222.94;1795505;79;20981;-83
2021/06/28 02:15:29;;;;;;;18.02;11.38;;;;;;;13.61;86.09;98219.91;1795250;79;21017;-83
2021/06/28 02:17:59;;;;;;;11.68;9.90;;;;;;;13.61;86.09;98223.19;1792247;79;20935;-83
2021/06/28 02:20:26;;;;;;;16.25;11.53;;;;;;;13.53;86.85;98223.29;1794855;79;21576;-83
2021/06/28 02:22:54;;;;;;;11.70;10.13;;;;;;;13.53;85.78;98222.73;1795543;79;21025;-88
2021/06/28 02:25:23;;;;;;;12.07;9.80;;;;;;;13.52;84.68;98223.84;1795617;79;20915;-87
2021/06/28 02:27:50;;;;;;;16.83;10.30;;;;;;;13.43;85.65;98222.88;1795525;79;20954;-82
2021/06/28 02:30:19;;;;;;;12.82;10.95;;;;;;;13.43;85.65;98221.52;1795719;79;22370;-88
2021/06/28 02:32:46;;;;;;;16.87;11.43;;;;;;;13.44;85.99;98221.77;1795340;79;20997;-87
2021/06/28 02:35:14;;;;;;;13.72;10.30;;;;;;;13.48;86.94;98218.71;1795203;79;21442;-88
2021/06/28 02:37:44;;;;;;;10.20;9.10;;;;;;;13.55;87.07;98220.52;1795195;79;20961;-83
2021/06/28 02:40:12;;;;;;;12.15;9.15;;;;;;;13.51;87.06;98222.23;1794406;79;20915;-87
2021/06/28 02:42:40;;;;;;;12.78;9.78;;;;;;;13.47;86.42;98222.54;1792418;79;20990;-83
2021/06/28 02:45:09;;;;;;;12.40;10.53;;;;;;;13.43;86.70;98220.16;1766463;79;20970;-88
2021/06/28 02:47:37;;;;;;;11.30;10.10;;;;;;;13.44;86.31;98227.77;1785838;79;20864;-82
2021/06/28 02:50:09;;;;;;;11.18;8.90;;;;;;;13.44;86.17;98226.41;1792666;80;20938;-87
2021/06/28 02:52:40;;;;;;;12.63;9.83;;;;;;;13.45;85.51;98228.03;1792149;79;21002;-84
2021/06/28 02:55:08;;;;;;;10.05;9.00;;;;;;;13.37;86.15;98230.84;1776645;80;20938;-83
2021/06/28 02:57:40;;;;;;;;;;;;;;;13.32;86.36;98223.29;1789690;79;20993;-88
2021/06/28 03:00:11;;;;;;;16.37;10.40;;;;;;;13.29;86.35;98228.78;1791473;80;20126;-88
2021/06/28 03:02:39;;;;;;;10.93;9.75;;;;;;;13.28;85.72;98229.88;1776977;80;20903;-87
2021/06/28 03:05:08;;;;;;;14.90;10.20;;;;;;;13.26;85.73;98230.73;1792160;79;20896;-84
2021/06/28 03:07:36;;;;;;;10.90;9.25;;;;;;;13.26;86.07;98230.18;1790641;79;20939;-82
2021/06/28 03:10:06;;;;;;;10.28;9.15;;;;;;;13.25;85.53;98227.20;1791002;79;21387;-83
2021/06/28 03:12:35;;;;;;;12.18;9.80;;;;;;;13.24;85.71;98232.39;1792737;79;21061;-87
2021/06/28 03:15:03;;;;;;;17.10;10.20;;;;;;;13.25;85.94;98221.76;1792869;79;21289;-83
2021/06/28 03:17:40;;;;;;;13.40;9.30;;;;;;;13.28;85.47;98224.99;1792945;79;20904;-88
2021/06/28 03:20:03;;;;;;;11.25;9.40;;;;;;;13.24;86.19;98222.02;1788704;79;21795;-82
2021/06/28 03:22:31;;;;;;;16.37;9.30;;;;;;;13.29;86.17;98227.97;1780011;79;20954;-87
2021/06/28 03:24:58;;;;;;;14.30;10.05;;;;;;;13.34;85.82;98221.11;1792576;80;21370;-88
2021/06/28 03:27:28;;;;;;;10.58;8.95;;;;;;;13.44;86.43;98226.41;1792473;80;20986;-89
2021/06/28 03:29:55;;;;;;;12.03;9.63;;;;;;;13.57;85.51;98230.30;1792477;79;21285;-88
2021/06/28 03:32:21;;;;;;;12.47;9.83;;;;;;;13.66;85.52;98223.09;1791942;79;21296;-88
2021/06/28 03:34:50;;;;;;;11.88;9.90;;;;;;;13.66;85.98;98221.73;1791973;79;20900;-83
2021/06/28 03:37:19;;;;;;;13.28;9.83;;;;;;;13.78;85.39;98217.47;1792508;79;21033;-83
2021/06/28 03:39:44;;;;;;;14.47;10.80;;;;;;;13.89;85.48;98215.95;1792825;80;20966;-83
2021/06/28 03:42:12;;;;;;;16.40;11.53;;;;;;;13.97;85.33;98210.64;1795493;79;20934;-88
2021/06/28 03:44:40;;;;;;;14.07;11.30;;;;;;;14.02;85.11;98213.84;1795149;79;21140;-82
2021/06/28 03:47:09;;;;;;;13.20;11.10;;;;;;;14.02;84.80;98214.66;1795640;79;20880;-88
2021/06/28 03:49:35;;;;;;;14.98;11.25;;;;;;;14.05;84.95;98214.05;1795615;79;20926;-88
2021/06/28 03:52:05;;;;;;;13.05;10.90;;;;;;;14.07;85.21;98210.47;1793333;79;21006;-83
2021/06/28 03:54:41;;;;;;;;;;;;;;;;;;;;;
2021/06/28 03:57:00;;;;;;;12.00;10.60;;;;;;;14.32;83.84;98211.95;1792587;79;22249;-88
2021/06/28 03:59:29;;;;;;;12.13;10.18;;;;;;;14.33;84.18;98216.85;1795677;79;20943;-88
2021/06/28 04:01:55;;;;;;;12.77;10.40;;;;;;;14.47;84.06;98216.37;1795156;79;21012;-83
2021/06/28 04:04:25;;;;;;;15.63;10.88;;;;;;;14.62;83.82;98217.46;1771175;80;20974;-88
2021/06/28 04:06:52;;;;;;;12.90;10.58;;;;;;;14.75;83.31;98214.48;1795041;79;21308;-89
2021/06/28 04:09:24;;;;;;;12.70;10.48;;;;;;;14.77;82.53;98209.52;1794901;79;21048;-83
2021/06/28 04:11:50;;;;;;;10.85;9.50;;;;;;;14.84;82.14;98211.86;1795151;79;20904;-88
2021/06/28 04:14:20;;;;;;;14.68;11.20;;;;;;;14.88;81.60;98209.60;1747370;79;21069;-88
2021/06/28 04:16:56;;;;;;;;;;;;;;;;;;;;;
2021/06/28 04:19:16;;;;;;;14.90;10.80;;;;;;;15.07;81.33;98210.86;1792479;79;20947;-87
2021/06/28 04:21:47;;;;;;;16.83;11.17;;;;;;;15.16;81.13;98211.75;1795639;79;21442;-87
2021/06/28 04:24:16;;;;;;;16.30;10.68;;;;;;;15.28;81.14;98211.78;1771040;80;21096;-87
2021/06/28 04:26:46;;;;;;;10.85;9.73;;;;;;;15.40;81.09;98206.62;1794889;79;21006;-83
2021/06/28 04:29:12;;;;;;;13.15;9.85;;;;;;;15.51;80.50;98216.20;1794976;79;21024;-87
2021/06/28 04:31:42;;;;;;;16.02;10.15;;;;;;;15.58;80.46;98208.41;1795784;80;20950;-87
2021/06/28 04:34:08;;;;;;;12.70;9.98;;;;;;;15.79;80.20;98206.03;1794842;79;21277;-88
2021/06/28 04:36:39;;;;;;;12.75;11.45;;;;;;;15.97;79.78;98215.97;1795764;80;21343;-88
2021/06/28 04:39:04;;;;;;;13.30;9.83;;;;;;;16.10;79.73;98217.61;1794795;79;21021;-83
2021/06/28 04:41:33;;;;;;;14.35;10.88;;;;;;;16.28;78.79;98212.50;1793184;80;21454;-88
2021/06/28 04:44:01;;;;;;;12.33;10.67;;;;;;;16.33;78.80;98214.56;1792748;80;20946;-88
2021/06/28 04:46:39;;;;;;;;;;;;;;;;;;;;;
2021/06/28 04:49:24;;;;;;;;;;;;;;;;;;;;;
2021/06/28 04:51:39;;;;;;;11.00;8.93;;;;;;;16.88;77.30;98218.31;1783170;79;20993;-83
2021/06/28 04:54:14;;;;;;;;;;;;;;;;;;;;;
2021/06/28 04:56:36;;;;;;;14.35;12.93;;;;;;;17.03;76.75;98218.47;1730906;79;21390;-88
2021/06/28 04:59:08;;;;;;;14.45;11.28;;;;;;;17.12;76.75;98216.56;1789558;79;21188;-88
2021/06/28 05:01:39;;;;;;;19.60;10.55;;;;;;;17.27;76.51;98217.25;1792598;79;20994;-88
2021/06/28 05:04:08;;;;;;;11.75;10.15;;;;;;;17.46;76.06;98219.94;1792578;79;21427;-83
2021/06/28 05:06:42;;;;;;;13.45;10.93;;;;;;;17.61;75.91;98220.62;1787137;79;20946;-88
2021/06/28 05:09:23;;;;;;;;;;;;;;;;;;;;;
2021/06/28 05:11:55;;;;;;;;;;;;;;;;;;;;;
2021/06/28 05:14:24;;;;;;;11.33;9.50;;;;;;;18.05;73.81;98225.02;1749790;81;20973;-88
2021/06/28 05:16:56;;;;;;;12.03;10.10;;;;;;;18.07;73.05;98225.48;1772225;80;21044;-88
2021/06/28 05:19:35;;;;;;;10.78;9.53;;;;;;;18.10;72.89;98224.83;1770876;81;20926;-87
2021/06/28 05:21:58;;;;;;;;;;;;;;;;;;;;;
2021/06/28 05:24:36;;;;;;;;;;;;;;;;;;;;;
2021/06/28 05:27:02;;;;;;;;;;;;;;;;;;;;;
2021/06/28 05:29:32;;;;;;;;;;;;;;;;;;;;;
2021/06/28 05:32:02;;;;;;;10.48;9.20;;;;;;;18.55;71.83;98224.45;1768835;80;20930;-84
2021/06/28 05:34:29;;;;;;;13.30;10.65;;;;;;;18.67;71.29;98230.09;1770324;80;20986;-83
2021/06/28 05:37:08;;;;;;;;;;;;;;;;;;;;;
2021/06/28 05:39:45;;;;;;;;;;;;;;;;;;;;;
2021/06/28 05:42:00;;;;;;;13.32;9.83;;;;;;;18.95;70.54;98233.22;1590711;90;21001;-83
2021/06/28 05:44:42;;;;;;;;;;;;;;;;;;;;;
2021/06/28 05:47:14;;;;;;;;;;;;;;;;;;;;;
2021/06/28 05:49:39;;;;;;;13.08;10.82;;;;;;;19.35;70.30;98230.94;1748959;80;21029;-89
2021/06/28 05:52:16;;;;;;;13.80;9.85;;;;;;;19.50;70.07;98235.06;1683352;85;21050;-83
2021/06/28 05:54:43;;;;;;;11.85;10.28;;;;;;;19.66;69.16;98235.31;1664220;86;20956;-83
2021/06/28 05:57:24;;;;;;;12.58;10.00;;;;;;;19.78;68.75;98229.08;1666712;86;21041;-88
2021/06/28 06:00:00;;;;;;;;;;;;;;;;;;;;;
2021/06/28 06:02:21;;;;;;;12.82;9.30;;;;;;;20.03;67.84;98228.06;1602003;89;21117;-87
2021/06/28 06:05:07;;;;;;;;;;;;;;;;;;;;;
2021/06/28 06:07:43;;;;;;;;;;;;;;;;;;;;;
2021/06/28 06:10:21;;;;;;;;;;;;;;;;;;;;;
2021/06/28 06:13:01;;;;;;;;;;;;;;;;;;;;;
2021/06/28 06:18:42;;;;;;;;;;;;;;;;;;;;;
2021/06/28 06:21:07;;;;;;;;;;;;;;;;;;;;;
2021/06/28 06:23:53;;;;;;;;;;;;;;;;;;;;;
2021/06/28 06:26:35;;;;;;;;;;;;;;;;;;;;;
2021/06/28 06:30:08;;;;;;;;;;;;;;;;;;;;;
2021/06/28 06:38:55;;;;;;;;;;;;;;;;;;;;;
2021/06/28 07:22:56;;;;;;;;;;;;;;;;;;;;;
2021/06/28 07:28:15;;;;;;;;;;;;;;;;;;;;;
2021/06/28 07:30:59;;;;;;;;;;;;;;;;;;;;;
2021/06/28 07:39:05;;;;;;;;;;;;;;;;;;;;;
2021/06/28 08:06:42;;;;;;;;;;;;;;;;;;;;;
2021/06/28 08:09:27;;;;;;;;;;;;;;;;;;;;;
2021/06/28 08:14:48;;;;;;;;;;;;;;;;;;;;;
2021/06/28 08:17:24;;;;;;;;;;;;;;;;;;;;;
2021/06/28 08:19:57;;;;;;;5.75;5.25;;;;;;;29.82;39.99;98194.42;1364593;103;21136;-89
2021/06/28 08:22:49;;;;;;;;;;;;;;;;;;;;;
2021/06/28 08:25:21;;;;;;;6.85;6.00;;;;;;;29.42;41.90;98197.28;1332261;106;21180;-85
2021/06/28 08:27:50;;;;;;;6.97;5.58;;;;;;;29.63;41.93;98198.46;1336331;106;21147;-89
2021/06/28 08:30:29;;;;;;;6.22;5.62;;;;;;;30.04;39.45;98196.75;1344377;102;21469;-84
2021/06/28 08:32:54;;;;;;;9.55;5.85;;;;;;;30.41;37.14;98203.80;1383209;102;21239;-85
2021/06/28 08:35:36;;;;;;;;;;;;;;;;;;;;;
2021/06/28 08:38:02;;;;;;;7.72;5.87;;;;;;;31.10;37.21;98204.97;1369807;103;21180;-85
2021/06/28 08:40:48;;;;;;;;;;;;;;;;;;;;;
2021/06/28 08:43:10;;;;;;;10.20;8.18;;;;;;;31.55;36.72;98215.61;1359936;103;21186;-88
2021/06/28 08:45:53;;;;;;;;;;;;;;;;;;;;;
2021/06/28 08:48:22;;;;;;;5.97;5.35;;;;;;;31.67;34.05;98209.48;1322964;105;21176;-89
2021/06/28 08:51:04;;;;;;;;;;;;;;;;;;;;;
2021/06/28 08:53:37;;;;;;;5.35;4.85;;;;;;;32.79;34.46;98204.92;1396023;100;21521;-84
2021/06/28 08:56:07;;;;;;;7.33;6.33;;;;;;;32.85;32.90;98207.29;1434436;98;40272;-89
2021/06/28 08:58:44;;;;;;;6.03;5.42;;;;;;;32.56;32.20;98200.67;1445406;97;21210;-89
2021/06/28 09:01:19;;;;;;;5.85;5.35;;;;;;;30.97;34.79;98208.88;1426155;99;21028;-88
2021/06/28 09:03:41;;;;;;;8.33;6.00;;;;;;;30.45;35.66;98208.78;1448773;97;21122;-84
2021/06/28 09:06:14;;;;;;;5.47;4.97;;;;;;;30.74;36.04;98210.83;1474355;95;21068;-84
2021/06/28 09:09:07;;;;;;;;;;;;;;;;;;;;;
2021/06/28 09:11:49;;;;;;;;;;;;;;;;;;;;;
2021/06/28 09:14:35;;;;;;;;;;;;;;;;;;;;;
2021/06/28 09:17:01;;;;;;;5.60;4.73;;;;;;;32.65;30.35;98205.15;1423106;99;21510;-89
2021/06/28 09:19:43;;;;;;;7.20;4.45;;;;;;;33.10;30.83;98208.48;1428369;100;21172;-84
2021/06/28 09:22:24;;;;;;;;;;;;;;;;;;;;;
2021/06/28 09:27:35;;;;;;;;;;;;;;;;;;;;;
2021/06/28 09:30:08;;;;;;;;;;;;;;;;;;;;;
2021/06/28 09:32:29;;;;;;;6.08;4.67;;;;;;;34.89;28.03;98201.63;1639893;83;20955;-89
2021/06/28 09:35:00;;;;;;;4.72;4.33;;;;;;;34.84;27.99;98204.14;1671228;84;20954;-89
2021/06/28 09:37:38;;;;;;;;;;;;;;;;;;;;;
2021/06/28 09:40:12;;;;;;;;;;;;;;;;;;;;;
2021/06/28 09:42:47;;;;;;;;;;;;;;;;;;;;;
2021/06/28 09:45:28;;;;;;;;;;;;;;;;;;;;;
2021/06/28 09:53:16;;;;;;;;;;;;;;;;;;;;;
2021/06/28 09:55:45;;;;;;;5.37;4.20;;;;;;;37.72;23.44;98182.30;1602651;82;21392;-85
2021/06/28 10:01:13;;;;;;;;;;;;;;;;;;;;;
2021/06/28 10:04:04;;;;;;;;;;;;;;;;;;;;;
2021/06/28 10:09:18;;;;;;;;;;;;;;;;;;;;;
2021/06/28 10:11:52;;;;;;;4.42;4.03;;;;;;;38.75;20.50;98170.60;1516404;93;20971;-88
2021/06/28 10:19:38;;;;;;;;;;;;;;;;;;;;;
2021/06/28 10:21:57;;;;;;;3.85;3.45;;;;;;;36.85;20.86;98160.23;1639060;85;20945;-84
2021/06/28 10:24:23;;;;;;;5.55;3.95;;;;;;;38.18;20.97;98158.61;1717448;82;21323;-84
2021/06/28 10:26:49;;;;;;;4.00;3.60;;;;;;;38.64;20.47;98163.94;1740923;82;20963;-81
2021/06/28 10:29:15;;;;;;;4.40;3.70;;;;;;;38.41;20.48;98165.86;1741306;82;20934;-81
2021/06/28 10:31:43;;;;;;;4.03;3.60;;;;;;;37.79;20.31;98158.05;1740962;82;21430;-83
2021/06/28 12:43:14;;;;;;;;;;;;;;;;;;;;;
2021/06/28 12:45:50;;;;;;;;;;;;;;;;;;;;;
2021/06/28 12:48:19;;;;;;;3.90;3.60;;;;;;;37.61;20.83;98095.70;1660500;84;21004;-89
2021/06/28 13:41:18;;;;;;;;;;;;;;;;;;;;;
2021/06/28 13:53:39;;;;;;;;;;;;;;;;;;;;;
2021/06/28 14:09:13;;;;;;;6.03;3.40;;;;;;;36.03;20.14;98068.23;1745033;80;21037;-88
2021/06/28 14:14:56;;;;;;;;;;;;;;;;;;;;;
2021/06/28 14:33:09;;;;;;;;;;;;;;;;;;;;;
2021/06/28 14:35:51;;;;;;;;;;;;;;;;;;;;;
2021/06/28 14:38:42;;;;;;;;;;;;;;;;;;;;;
2021/06/28 14:41:27;;;;;;;;;;;;;;;;;;;;;
2021/06/28 14:49:09;;;;;;;;;;;;;;;;;;;;;
2021/06/28 14:51:42;;;;;;;;;;;;;;;;;;;;;
2021/06/28 14:54:17;;;;;;;;;;;;;;;;;;;;;
2021/06/28 14:56:53;;;;;;;;;;;;;;;;;;;;;
2021/06/28 15:07:05;;;;;;;;;;;;;;;;;;;;;
2021/06/28 15:09:59;;;;;;;;;;;;;;;;;;;;;
2021/06/28 15:12:31;;;;;;;;;;;;;;;;;;;;;
2021/06/28 15:15:08;;;;;;;10.50;3.72;;;;;;;33.78;22.85;98062.63;1634228;86;21120;-84
2021/06/28 15:17:54;;;;;;;;;;;;;;;;;;;;;
2021/06/28 15:20:18;;;;;;;3.10;2.80;;;;;;;33.97;22.49;98049.80;1503301;93;21135;-89
2021/06/28 15:22:58;;;;;;;9.25;3.25;;;;;;;32.92;21.96;98052.86;1465732;95;21002;-84
2021/06/28 15:28:08;;;;;;;5.55;2.95;;;;;;;32.06;23.24;98047.16;1727697;82;20963;-88
2021/06/28 15:30:44;;;;;;;;;;;;;;;;;;;;;
2021/06/28 15:33:11;;;;;;;5.10;3.70;;;;;;;31.70;23.84;98042.61;1728073;80;20930;-87
2021/06/28 15:35:50;;;;;;;;;;;;;;;;;;;;;
2021/06/28 15:38:29;;;;;;;;;;;;;;;;;;;;;
2021/06/28 15:40:53;;;;;;;3.83;3.35;;;;;;;31.53;25.34;98045.02;1745198;80;20993;-83
2021/06/28 15:43:38;;;;;;;;;;;;;;;;;;;;;
2021/06/28 15:46:09;;;;;;;;;;;;;;;;;;;;;
2021/06/28 15:48:30;;;;;;;3.70;3.20;;;;;;;31.59;25.17;98041.95;1579902;89;21020;-89
2021/06/28 15:51:05;;;;;;;6.65;5.78;;;;;;;31.91;24.67;98037.37;1571373;89;20976;-84
2021/06/28 15:53:36;;;;;;;5.12;4.62;;;;;;;31.78;24.93;98036.34;1598352;89;21804;-89
2021/06/28 15:56:17;;;;;;;;;;;;;;;;;;;;;
2021/06/28 15:58:56;;;;;;;;;;;;;;;;;;;;;
2021/06/28 16:01:29;;;;;;;6.25;4.37;;;;;;;29.95;26.05;98039.18;1506442;92;21071;-84
2021/06/28 16:04:09;;;;;;;;;;;;;;;;;;;;;
2021/06/28 16:06:35;;;;;;;4.15;3.75;;;;;;;29.57;26.82;98031.19;1573892;89;20977;-89
2021/06/28 16:09:18;;;;;;;;;;;;;;;;;;;;;
2021/06/28 16:11:41;;;;;;;3.92;3.50;;;;;;;29.06;27.79;98025.58;1636317;86;20943;-83
2021/06/28 16:14:12;;;;;;;4.28;3.87;;;;;;;28.91;27.94;98021.41;1640226;87;21018;-83
2021/06/28 16:16:54;;;;;;;;;;;;;;;;;;;;;
2021/06/28 16:19:32;;;;;;;;;;;;;;;;;;;;;
2021/06/28 16:22:09;;;;;;;;;;;;;;;;;;;;;
2021/06/28 16:24:39;;;;;;;;;;;;;;;;;;;;;
2021/06/28 16:27:12;;;;;;;;;;;;;;;;;;;;;
2021/06/28 16:29:41;;;;;;;6.80;4.15;;;;;;;28.00;30.55;98012.59;1685845;85;22350;-89
2021/06/28 16:32:29;;;;;;;5.08;4.30;;;;;;;27.91;30.10;98012.19;1567787;90;21107;-88
2021/06/28 16:35:10;;;;;;;;;;;;;;;;;;;;;
2021/06/28 16:37:50;;;;;;;;;;;;;;;;;;;;;
2021/06/28 16:40:31;;;;;;;;;;;;;;;;;;;;;
2021/06/28 16:51:00;;;;;;;;;;;;;;;;;;;;;
2021/06/28 16:53:35;;;;;;;7.35;4.85;;;;;;;27.16;30.32;98002.15;1359310;104;21416;-89
2021/06/28 16:59:06;;;;;;;;;;;;;;;;;;;;;
2021/06/28 17:04:39;;;;;;;;;;;;;;;;;;;;;
2021/06/28 17:09:47;;;;;;;;;;;;;;;;;;;;;
2021/06/28 17:15:00;;;;;;;;;;;;;;;;;;;;;
2021/06/28 17:17:45;;;;;;;9.85;6.47;;;;;;;26.86;34.58;97998.79;1642443;86;21013;-88
2021/06/28 17:20:01;;;;;;;11.60;6.60;;;;;;;26.81;35.53;97992.99;1572764;90;21048;-83
2021/06/28 17:22:53;;;;;;;6.78;6.08;;;;;;;26.73;35.02;97993.34;1644749;86;21033;-88
2021/06/28 17:25:17;;;;;;;10.10;6.17;;;;;;;26.65;35.75;97991.89;1630066;87;20973;-88
2021/06/28 17:27:57;;;;;;;6.85;6.15;;;;;;;26.61;35.59;97992.47;1621638;87;21498;-83
2021/06/28 17:30:42;;;;;;;;;;;;;;;;;;;;;
2021/06/28 17:33:18;;;;;;;;;;;;;;;;;;;;;
2021/06/28 17:35:46;;;;;;;10.23;6.60;;;;;;;26.56;36.01;97988.66;1575878;90;21041;-89
2021/06/28 17:38:32;;;;;;;;;;;;;;;;;;;;;
2021/06/28 17:41:10;;;;;;;;;;;;;;;;;;;;;
2021/06/28 17:43:44;;;;;;;;;;;;;;;;;;;;;
2021/06/28 17:46:11;;;;;;;;;;;;;;;;;;;;;
2021/06/28 17:48:39;;;;;;;13.75;8.08;;;;;;;26.15;38.88;97992.89;1478383;96;21639;-88
2021/06/28 17:51:17;;;;;;;;;;;;;;;;;;;;;
2021/06/28 17:53:53;;;;;;;;;;;;;;;;;;;;;
2021/06/28 17:56:18;;;;;;;12.45;10.88;;;;;;;25.67;40.57;97999.50;1573965;89;21416;-83
2021/06/28 17:58:53;;;;;;;14.95;10.95;;;;;;;25.48;41.32;98003.26;1601335;89;21004;-81
2021/06/28 18:01:34;;;;;;;;;;;;;;;;;;;;;
2021/06/28 18:04:00;;;;;;;27.35;24.47;;;;;;;25.11;42.46;98003.17;1600268;89;21107;-82
2021/06/28 18:06:30;;;;;;;13.93;11.00;;;;;;;24.91;42.76;98007.44;1601434;89;21349;-86
2021/06/28 18:09:04;;;;;;;11.88;9.78;;;;;;;24.69;44.61;98005.52;1632341;84;21023;-83
2021/06/28 18:11:27;;;;;;;11.38;8.80;;;;;;;24.45;45.36;97987.38;1687223;84;20975;-87
2021/06/28 18:13:55;;;;;;;13.20;10.53;;;;;;;24.36;46.56;97995.94;1686439;84;20963;-82
2021/06/28 18:16:23;;;;;;;14.55;12.30;;;;;;;24.19;48.97;97999.98;1690899;84;20964;-83
2021/06/28 18:18:51;;;;;;;17.73;12.20;;;;;;;24.03;49.24;97998.50;1689661;85;21168;-83
2021/06/28 18:21:17;;;;;;;18.17;14.70;;;;;;;23.88;51.62;97998.24;1689505;84;20892;-86
2021/06/28 18:23:46;;;;;;;19.00;15.55;;;;;;;23.73;50.62;97998.34;1689452;84;21030;-87
2021/06/28 18:26:18;;;;;;;19.65;14.15;;;;;;;23.54;51.75;98002.70;1688618;84;21012;-83
2021/06/28 18:28:45;;;;;;;14.73;10.43;;;;;;;23.45;51.31;97998.57;1689974;84;21039;-82
2021/06/28 18:31:15;;;;;;;12.03;10.82;;;;;;;23.38;50.95;98000.61;1687866;85;21071;-82
2021/06/28 18:33:45;;;;;;;11.12;9.13;;;;;;;23.21;51.15;98000.45;1689063;84;22022;-87
2021/06/28 18:36:11;;;;;;;12.60;9.93;;;;;;;22.97;52.26;98000.72;1686767;84;21537;-82
2021/06/28 18:38:37;;;;;;;12.30;8.78;;;;;;;22.80;52.86;98000.52;1688298;85;20973;-83
2021/06/28 18:41:05;;;;;;;12.93;11.27;;;;;;;22.67;53.40;98005.95;1688135;84;20972;-81
2021/06/28 18:43:31;;;;;;;12.30;10.30;;;;;;;22.50;53.23;98007.94;1686715;85;21249;-87
2021/06/28 18:46:01;;;;;;;13.40;10.95;;;;;;;22.35;53.65;98007.37;1677817;85;20921;-83
2021/06/28 18:48:27;;;;;;;25.33;13.43;;;;;;;22.25;54.93;98010.67;1688933;84;20925;-88
2021/06/28 18:50:54;;;;;;;17.73;11.83;;;;;;;22.23;54.02;98011.62;1687771;84;20929;-82
2021/06/28 18:53:20;;;;;;;11.75;9.60;;;;;;;22.21;54.85;98013.33;1686825;85;21338;-82
2021/06/28 18:55:48;;;;;;;14.13;10.38;;;;;;;22.11;55.64;98016.63;1686832;84;21122;-87
2021/06/28 18:58:15;;;;;;;14.17;10.07;;;;;;;21.98;56.66;98019.23;1687132;84;21413;-87
2021/06/28 19:00:43;;;;;;;13.43;10.55;;;;;;;21.65;56.64;98012.05;1677067;85;21405;-81
2021/06/28 19:03:15;;;;;;;14.35;10.50;;;;;;;21.65;56.64;98012.05;1687929;85;20949;-81
2021/06/28 19:05:42;;;;;;;12.88;9.90;;;;;;;21.61;57.08;98022.16;1688186;84;20973;-82
2021/06/28 19:08:08;;;;;;;15.18;11.53;;;;;;;21.53;56.81;98016.80;1687119;84;21311;-82
2021/06/28 19:10:35;;;;;;;15.00;11.45;;;;;;;21.47;57.04;98021.79;1686965;85;21016;-82
2021/06/28 19:13:04;;;;;;;16.07;14.15;;;;;;;21.38;58.60;98027.45;1686717;85;21075;-83
2021/06/28 19:15:29;;;;;;;15.45;13.43;;;;;;;21.35;58.02;98030.89;1688427;84;21036;-87
2021/06/28 19:17:55;;;;;;;14.47;12.53;;;;;;;21.25;60.06;98029.98;1688128;85;20973;-81
2021/06/28 19:20:21;;;;;;;16.87;13.55;;;;;;;21.12;59.35;98023.72;1687194;85;21507;-85
2021/06/28 19:22:50;;;;;;;19.60;15.72;;;;;;;20.99;60.68;98026.84;1686772;84;20957;-81
2021/06/28 19:25:15;;;;;;;16.85;13.72;;;;;;;20.88;60.54;98033.41;1687979;85;20966;-86
2021/06/28 19:27:41;;;;;;;17.32;13.45;;;;;;;20.75;60.80;98033.19;1687708;83;21059;-82
2021/06/28 19:30:09;;;;;;;15.38;12.90;;;;;;;20.65;61.60;98043.29;1686984;84;21472;-81
2021/06/28 19:32:35;;;;;;;20.60;17.45;;;;;;;20.50;62.36;98042.02;1687611;85;21114;-83
2021/06/28 19:35:01;;;;;;;18.35;14.87;;;;;;;20.42;64.23;98041.53;1687131;84;21634;-82
2021/06/28 19:37:27;;;;;;;15.65;13.25;;;;;;;20.35;64.85;98040.75;1687110;84;21386;-87
2021/06/28 19:39:53;;;;;;;14.63;11.73;;;;;;;20.27;63.55;98041.66;1692225;84;21012;-81
2021/06/28 19:42:20;;;;;;;17.95;12.93;;;;;;;20.18;63.44;98038.22;1686016;84;21037;-86
2021/06/28 19:44:47;;;;;;;13.43;11.12;;;;;;;20.13;64.44;98043.92;1684103;84;21150;-86
2021/06/28 19:47:13;;;;;;;19.23;12.30;;;;;;;20.02;64.81;98038.64;1683991;84;20981;-81
2021/06/28 19:49:40;;;;;;;18.90;13.25;;;;;;;19.87;67.98;98039.52;1672311;85;20850;-82
2021/06/28 19:52:07;;;;;;;23.27;16.17;;;;;;;19.75;66.81;98047.75;1683307;84;20937;-82
2021/06/28 19:54:33;;;;;;;21.90;15.13;;;;;;;19.70;66.39;98040.50;1684646;85;21063;-87
2021/06/28 19:56:59;;;;;;;22.87;16.07;;;;;;;19.70;65.41;98043.82;1683190;85;21463;-81